Time;durP1;ratioP1;P1;durP2;ratioP2;P2;SDS_P1;SDS_P2;PMS_P1;PMS_P2;Temp;Humidity;BMP_temperature;BMP_pressure;BME280_temperature;BME280_humidity;BME280_pressure;Samples;Min_cycle;Max_cycle;Signal;HPM_P1;HPM_P2
2023/03/13 00:01:39;;;;;;;2.03;1.40;;;23.90;41.20;;;;;;5063930;27;84477;-62
2023/03/13 00:04:07;;;;;;;2.37;1.00;;;23.80;41.20;;;;;;5064102;27;81785;-62
2023/03/13 00:06:36;;;;;;;1.63;0.97;;;23.80;41.60;;;;;;5063591;27;86558;-62
2023/03/13 00:09:06;;;;;;;2.00;0.90;;;;;;;;;;5064247;27;83827;-62
2023/03/13 00:11:34;;;;;;;1.97;0.97;;;;;;;;;;5064237;27;84033;-62
2023/03/13 00:14:03;;;;;;;1.07;0.87;;;23.80;40.70;;;;;;5044555;28;81758;-62
2023/03/13 00:16:33;;;;;;;1.13;0.93;;;23.80;41.30;;;;;;5053475;27;84233;-61
2023/03/13 00:19:01;;;;;;;1.40;0.87;;;23.70;41.20;;;;;;5063732;27;83061;-61
2023/03/13 00:21:30;;;;;;;1.90;1.30;;;23.70;41.20;;;;;;5063819;27;83690;-62
2023/03/13 00:23:58;;;;;;;1.33;0.97;;;23.70;41.20;;;;;;5063506;27;82853;-61
2023/03/13 00:26:28;;;;;;;1.00;0.87;;;23.70;41.30;;;;;;5063889;27;86850;-61
2023/03/13 00:28:56;;;;;;;2.73;1.13;;;23.70;41.30;;;;;;5063787;27;85474;-62
2023/03/13 00:31:25;;;;;;;3.43;1.70;;;23.70;41.30;;;;;;5063166;27;84303;-62
2023/03/13 00:33:54;;;;;;;1.73;1.10;;;23.70;41.30;;;;;;5063322;27;81973;-61
2023/03/13 00:36:23;;;;;;;2.70;1.20;;;;;;;;;;5063114;27;83864;-61
2023/03/13 00:38:51;;;;;;;2.70;0.83;;;;;;;;;;5063557;27;84063;-61
2023/03/13 00:41:20;;;;;;;0.70;0.70;;;;;;;;;;5063758;27;82792;-62
2023/03/13 00:43:49;;;;;;;2.27;1.07;;;;;;;;;;5063729;27;81913;-62
2023/03/13 00:46:18;;;;;;;1.00;0.87;;;;;;;;;;5067067;27;83766;-61
2023/03/13 00:48:46;;;;;;;1.57;1.00;;;;;;;;;;5066987;27;85065;-62
2023/03/13 00:51:15;;;;;;;2.60;1.00;;;23.50;40.80;;;;;;5066686;27;84922;-62
2023/03/13 00:53:43;;;;;;;3.10;1.10;;;23.50;41.30;;;;;;5066659;27;82075;-62
2023/03/13 00:56:12;;;;;;;0.93;0.63;;;23.50;41.30;;;;;;5066537;27;82558;-62
2023/03/13 00:58:40;;;;;;;1.43;1.17;;;23.50;41.40;;;;;;5066913;27;84004;-62
2023/03/13 01:01:11;;;;;;;2.30;1.27;;;23.40;41.30;;;;;;5066745;27;83874;-62
2023/03/13 01:03:39;;;;;;;2.20;1.30;;;23.40;41.30;;;;;;5067315;27;81990;-62
2023/03/13 01:06:08;;;;;;;2.73;1.30;;;23.40;41.30;;;;;;5067065;27;83372;-62
2023/03/13 01:08:36;;;;;;;0.90;0.90;;;23.40;41.40;;;;;;5067275;27;83369;-62
2023/03/13 01:11:05;;;;;;;2.10;1.00;;;23.40;41.40;;;;;;5066792;27;83720;-62
2023/03/13 01:13:33;;;;;;;2.47;1.07;;;23.30;41.40;;;;;;5066180;27;82927;-61
2023/03/13 01:16:02;;;;;;;1.37;1.27;;;23.30;41.40;;;;;;5066621;27;83837;-62
2023/03/13 01:18:32;;;;;;;1.17;0.90;;;23.30;41.50;;;;;;5066997;27;83998;-62
2023/03/13 01:21:00;;;;;;;2.93;1.20;;;23.30;41.60;;;;;;5065807;27;83830;-62
2023/03/13 01:23:28;;;;;;;1.10;0.90;;;23.30;41.50;;;;;;5066439;27;82145;-62
2023/03/13 01:25:56;;;;;;;3.53;1.20;;;23.30;41.50;;;;;;5066508;27;83808;-62
2023/03/13 01:28:24;;;;;;;2.57;1.20;;;;;;;;;;5067033;27;84227;-62
2023/03/13 01:30:52;;;;;;;0.90;0.90;;;;;;;;;;5066669;27;83926;-62
2023/03/13 01:33:21;;;;;;;1.87;1.37;;;;;;;;;;5066750;27;81929;-62
2023/03/13 01:35:50;;;;;;;1.37;0.83;;;;;;;;;;5066015;27;83969;-62
2023/03/13 01:38:18;;;;;;;1.10;1.00;;;23.20;41.10;;;;;;5066133;27;83941;-62
2023/03/13 01:40:47;;;;;;;3.40;1.03;;;;;;;;;;5066285;27;85189;-62
2023/03/13 01:43:19;;;;;;;1.97;1.83;;;;;;;;;;5066359;27;81910;-62
2023/03/13 01:45:58;;;;;;;2.23;0.93;;;23.10;41.00;;;;;;5066508;27;83806;-62
2023/03/13 01:48:33;;;;;;;1.83;0.93;;;23.10;41.60;;;;;;5066562;27;83556;-62
2023/03/13 01:51:03;;;;;;;1.93;1.20;;;23.10;41.60;;;;;;5066295;27;83608;-62
2023/03/13 01:53:32;;;;;;;2.80;1.33;;;;;;;;;;5066615;27;81768;-61
2023/03/13 01:56:00;;;;;;;2.63;1.07;;;;;;;;;;5065979;27;83783;-62
2023/03/13 01:58:28;;;;;;;2.03;1.10;;;;;;;;;;5065918;27;83856;-61
2023/03/13 02:00:57;;;;;;;3.57;1.33;;;23.10;41.10;;;;;;5065832;27;83749;-62
2023/03/13 02:03:25;;;;;;;2.40;0.90;;;;;;;;;;5065467;27;83049;-62
2023/03/13 02:05:53;;;;;;;1.50;1.40;;;23.00;41.10;;;;;;5065612;27;85908;-61
2023/03/13 02:08:23;;;;;;;1.77;1.03;;;;;;;;;;5061223;27;84127;-64
2023/03/13 02:10:53;;;;;;;2.07;1.10;;;23.00;41.20;;;;;;5065529;27;83628;-63
2023/03/13 02:13:21;;;;;;;1.43;0.83;;;;;;;;;;5065953;27;81868;-61
2023/03/13 02:15:50;;;;;;;1.30;1.00;;;;;;;;;;5065838;27;84291;-63
2023/03/13 02:18:18;;;;;;;1.83;1.20;;;;;;;;;;5065872;27;84608;-62
2023/03/13 02:20:46;;;;;;;2.63;0.90;;;;;;;;;;5065900;27;83848;-64
2023/03/13 02:23:16;;;;;;;0.93;0.93;;;;;;;;;;5065822;27;82489;-61
2023/03/13 02:25:48;;;;;;;1.87;1.37;;;;;;;;;;5065624;27;83892;-61
2023/03/13 02:28:18;;;;;;;2.23;1.07;;;;;;;;;;5065072;27;83996;-61
2023/03/13 02:30:46;;;;;;;1.53;1.20;;;;;;;;;;5065563;27;84335;-64
2023/03/13 02:33:14;;;;;;;2.60;0.93;;;;;;;;;;5065184;27;82483;-61
2023/03/13 02:35:42;;;;;;;1.20;1.07;;;;;;;;;;5065642;27;83969;-61
2023/03/13 02:38:12;;;;;;;1.73;1.53;;;;;;;;;;5064851;27;84130;-63
2023/03/13 02:40:40;;;;;;;2.37;1.40;;;;;;;;;;5064978;27;83950;-62
2023/03/13 02:43:11;;;;;;;1.17;0.87;;;;;;;;;;5065466;27;81911;-61
2023/03/13 02:45:40;;;;;;;1.37;0.93;;;;;;;;;;5066439;27;84035;-61
2023/03/13 02:48:08;;;;;;;2.17;1.17;;;;;;;;;;5064917;27;83946;-61
2023/03/13 02:50:36;;;;;;;2.37;1.07;;;;;;;;;;5065057;27;82548;-61
2023/03/13 02:53:05;;;;;;;2.23;1.40;;;;;;;;;;5065151;27;82894;-61
2023/03/13 02:55:35;;;;;;;1.47;1.27;;;;;;;;;;5065695;27;83553;-61
2023/03/13 02:58:03;;;;;;;2.03;1.27;;;;;;;;;;5065198;27;82790;-61
2023/03/13 03:00:33;;;;;;;1.87;1.00;;;;;;;;;;5064521;27;83821;-61
2023/03/13 03:03:01;;;;;;;2.43;0.90;;;;;;;;;;5064539;27;81876;-62
2023/03/13 03:05:29;;;;;;;2.43;0.80;;;;;;;;;;5065196;27;83487;-61
2023/03/13 03:07:57;;;;;;;1.33;1.20;;;;;;;;;;5063927;27;83914;-61
2023/03/13 03:10:26;;;;;;;2.77;1.20;;;;;;;;;;5065671;27;83529;-61
2023/03/13 03:12:54;;;;;;;2.23;1.47;;;;;;;;;;5064605;27;82061;-61
2023/03/13 03:15:22;;;;;;;0.80;0.80;;;;;;;;;;5065131;27;83951;-62
2023/03/13 03:17:52;;;;;;;1.47;1.23;;;;;;;;;;5063887;27;85023;-61
2023/03/13 03:20:20;;;;;;;2.00;1.10;;;;;;;;;;5064311;27;84904;-64
2023/03/13 03:22:48;;;;;;;0.60;0.60;;;;;;;;;;5064747;27;84294;-64
2023/03/13 03:25:17;;;;;;;1.63;1.07;;;;;;;;;;5065108;27;83319;-61
2023/03/13 03:27:45;;;;;;;1.20;1.00;;;;;;;;;;5064106;27;84064;-62
2023/03/13 03:30:13;;;;;;;1.23;0.80;;;;;;;;;;5064601;27;83875;-62
2023/03/13 03:32:42;;;;;;;0.80;0.80;;;;;;;;;;5064696;27;81878;-62
2023/03/13 03:35:11;;;;;;;0.83;0.83;;;;;;;;;;5065011;27;86393;-62
2023/03/13 03:37:40;;;;;;;1.77;1.20;;;;;;;;;;5063980;27;84059;-64
2023/03/13 03:40:09;;;;;;;1.60;0.87;;;;;;;;;;5063733;27;82539;-61
2023/03/13 03:42:38;;;;;;;0.50;0.50;;;;;;;;;;5064396;27;82919;-62
2023/03/13 03:45:06;;;;;;;1.23;1.00;;;;;;;;;;5064560;27;83904;-62
2023/03/13 03:47:35;;;;;;;2.83;1.37;;;;;;;;;;5064844;27;82803;-63
2023/03/13 03:50:03;;;;;;;1.17;1.03;;;;;;;;;;5055467;27;84086;-62
2023/03/13 03:52:33;;;;;;;2.50;1.33;;;;;;;;;;5063730;27;81874;-62
2023/03/13 03:55:01;;;;;;;0.93;0.80;;;;;;;;;;5063959;27;83738;-62
2023/03/13 03:57:29;;;;;;;0.63;0.63;;;;;;;;;;5064263;27;84107;-62
2023/03/13 03:59:58;;;;;;;5.10;1.03;;;;;;;;;;5063917;27;83516;-62
2023/03/13 04:02:26;;;;;;;1.83;0.90;;;;;;;;;;5064114;27;81969;-62
2023/03/13 04:04:54;;;;;;;1.20;0.90;;;;;;;;;;5064043;27;83863;-62
2023/03/13 04:07:22;;;;;;;1.60;0.83;;;;;;;;;;5063214;27;86668;-62
2023/03/13 04:09:52;;;;;;;0.83;0.73;;;;;;;;;;5063226;27;84516;-62
2023/03/13 04:12:20;;;;;;;0.50;0.50;;;;;;;;;;5063986;27;81957;-62
2023/03/13 04:14:49;;;;;;;1.40;0.97;;;;;;;;;;5064498;27;83684;-62
2023/03/13 04:17:17;;;;;;;0.87;0.70;;;;;;;;;;5064965;27;82722;-62
2023/03/13 04:19:45;;;;;;;1.17;0.97;;;;;;;;;;5065643;27;82479;-61
2023/03/13 04:22:13;;;;;;;1.47;1.00;;;;;;;;;;5067098;27;82806;-61
2023/03/13 04:24:41;;;;;;;0.73;0.40;;;;;;;;;;5067697;27;83693;-62
2023/03/13 04:27:11;;;;;;;1.03;0.90;;;;;;;;;;5067988;27;84037;-62
2023/03/13 04:29:39;;;;;;;2.17;0.90;;;;;;;;;;5067271;27;83593;-62
2023/03/13 04:32:08;;;;;;;0.60;0.60;;;;;;;;;;5067724;27;82814;-62
2023/03/13 04:34:36;;;;;;;2.07;0.93;;;;;;;;;;5056728;27;83858;-63
2023/03/13 04:37:04;;;;;;;1.07;0.97;;;;;;;;;;5066999;27;83185;-61
2023/03/13 04:39:33;;;;;;;1.07;0.83;;;;;;;;;;5066627;27;83170;-64
2023/03/13 04:42:01;;;;;;;0.50;0.50;;;;;;;;;;5067257;27;81978;-62
2023/03/13 04:44:31;;;;;;;0.70;0.70;;;;;;;;;;5066988;27;84005;-64
2023/03/13 04:46:59;;;;;;;0.63;0.63;;;;;;;;;;5067395;27;83974;-64
2023/03/13 04:49:27;;;;;;;1.37;1.00;;;;;;;;;;5066644;27;83887;-64
2023/03/13 04:51:55;;;;;;;1.47;1.00;;;;;;;;;;5067572;27;81969;-64
2023/03/13 04:54:24;;;;;;;1.63;0.77;;;;;;;;;;5066789;27;83600;-64
2023/03/13 04:56:52;;;;;;;0.80;0.57;;;;;;;;;;5066568;27;85021;-62
2023/03/13 04:59:20;;;;;;;1.17;0.80;;;;;;;;;;5066512;27;83455;-61
2023/03/13 05:01:50;;;;;;;0.50;0.50;;;;;;;;;;5066743;27;81832;-62
2023/03/13 05:04:18;;;;;;;0.40;0.40;;;;;;;;;;5066856;27;82360;-62
2023/03/13 05:06:46;;;;;;;0.90;0.87;;;;;;;;;;5066684;27;83827;-62
2023/03/13 05:09:14;;;;;;;2.37;1.03;;;;;;;;;;5066657;27;83130;-61
2023/03/13 05:11:43;;;;;;;1.00;0.80;;;;;;;;;;5067161;27;81777;-62
2023/03/13 05:14:11;;;;;;;0.80;0.80;;;;;;;;;;5066277;27;84003;-61
2023/03/13 05:16:39;;;;;;;2.20;1.00;;;;;;;;;;5067235;27;85635;-64
2023/03/13 05:19:09;;;;;;;1.03;0.83;;;;;;;;;;5066465;27;83968;-62
2023/03/13 05:21:37;;;;;;;0.70;0.70;;;;;;;;;;5065344;27;84119;-61
2023/03/13 05:24:06;;;;;;;1.03;0.93;;;;;;;;;;5065656;27;84040;-61
2023/03/13 05:26:34;;;;;;;0.80;0.80;;;;;;;;;;5046341;28;83810;-62
2023/03/13 05:29:02;;;;;;;0.73;0.67;;;;;;;;;;5055494;27;81944;-62
2023/03/13 05:31:31;;;;;;;0.83;0.60;;;;;;;;;;5065458;27;82143;-62
2023/03/13 05:33:59;;;;;;;0.80;0.80;;;;;;;;;;5066637;27;83503;-62
2023/03/13 05:36:29;;;;;;;0.47;0.47;;;;;;;;;;5064861;27;82982;-62
2023/03/13 05:38:57;;;;;;;2.10;1.17;;;;;;;;;;5066371;27;83784;-61
2023/03/13 05:41:25;;;;;;;0.80;0.80;;;;;;;;;;5066369;27;82011;-61
2023/03/13 05:43:54;;;;;;;5.20;0.70;;;;;;;;;;5066628;27;83987;-61
2023/03/13 05:46:22;;;;;;;1.10;1.00;;;;;;;;;;5065006;27;85047;-61
2023/03/13 05:48:51;;;;;;;0.40;0.40;;;;;;;;;;5066511;27;83850;-61
2023/03/13 05:51:19;;;;;;;0.77;0.60;;;;;;;;;;5066552;27;81999;-61
2023/03/13 05:53:49;;;;;;;0.60;0.60;;;;;;;;;;5066830;27;83937;-62
2023/03/13 05:56:17;;;;;;;0.73;0.57;;;;;;;;;;5065431;27;83162;-63
2023/03/13 05:58:46;;;;;;;0.53;0.53;;;;;;;;;;5066650;27;83778;-61
2023/03/13 06:01:14;;;;;;;1.13;1.13;;;;;;;;;;5064444;27;83707;-61
2023/03/13 06:03:42;;;;;;;0.73;0.60;;;;;;;;;;5064564;27;83956;-62
2023/03/13 06:06:11;;;;;;;0.87;0.73;;;;;;;;;;5065568;27;83097;-61
2023/03/13 06:08:39;;;;;;;0.73;0.60;;;;;;;;;;5066067;27;83958;-64
2023/03/13 06:11:08;;;;;;;0.87;0.80;;;;;;;;;;5064772;27;82940;-64
2023/03/13 06:13:37;;;;;;;0.57;0.57;;;;;;;;;;5050381;27;83697;-64
2023/03/13 06:16:05;;;;;;;3.23;0.80;;;;;;;;;;5065654;27;83787;-64
2023/03/13 06:18:34;;;;;;;0.77;0.77;;;;;;;;;;5065058;27;84115;-64
2023/03/13 06:21:02;;;;;;;0.40;0.40;;;;;;;;;;5064583;27;83496;-64
2023/03/13 06:23:30;;;;;;;1.07;0.70;;;;;;;;;;5063695;27;84053;-63
2023/03/13 06:25:59;;;;;;;0.60;0.50;;;;;;;;;;5065822;27;83946;-64
2023/03/13 06:28:28;;;;;;;0.60;0.53;;;;;;;;;;5063898;27;83868;-64
2023/03/13 06:30:58;;;;;;;0.87;0.77;;;;;;;;;;5064726;27;81920;-60
2023/03/13 06:33:26;;;;;;;0.50;0.50;;;;;;;;;;5065813;27;83814;-61
2023/03/13 06:35:55;;;;;;;0.70;0.70;;;;;;;;;;5064268;27;84674;-61
2023/03/13 06:38:24;;;;;;;1.03;0.50;;;;;;;;;;5056926;27;84904;-61
2023/03/13 06:40:52;;;;;;;1.60;1.40;;;;;;;;;;5064628;27;81959;-61
2023/03/13 06:43:21;;;;;;;0.83;0.60;;;;;;;;;;5063643;27;83971;-61
2023/03/13 06:45:50;;;;;;;1.13;0.63;;;;;;;;;;5063303;27;83913;-61
2023/03/13 06:48:19;;;;;;;0.60;0.60;;;;;;;;;;5065121;27;84341;-61
2023/03/13 06:50:47;;;;;;;0.87;0.60;;;;;;;;;;5064684;27;81776;-65
2023/03/13 06:53:16;;;;;;;1.53;0.80;;;;;;;;;;5053034;27;84346;-66
2023/03/13 06:55:44;;;;;;;0.47;0.47;;;;;;;;;;5064825;27;83919;-66
2023/03/13 06:58:13;;;;;;;0.87;0.87;;;;;;;;;;5064949;27;86421;-63
2023/03/13 07:01:00;;;;;;;0.60;0.60;;;;;;;;;;5057025;27;82956;-64
2023/03/13 07:03:28;;;;;;;2.60;0.60;;;;;;;;;;5063218;27;86733;-61
2023/03/13 07:05:57;;;;;;;0.73;0.73;;;;;;;;;;5064329;27;82442;-64
2023/03/13 07:08:25;;;;;;;2.17;0.77;;;;;;;;;;5064923;27;83708;-64
2023/03/13 07:10:54;;;;;;;2.93;1.07;;;;;;;;;;5063868;27;81892;-64
2023/03/13 07:13:22;;;;;;;3.57;0.80;;;;;;;;;;5064592;27;86669;-64
2023/03/13 07:15:51;;;;;;;2.33;1.13;;;;;;;;;;5064367;27;83847;-64
2023/03/13 07:18:20;;;;;;;1.37;0.73;;;;;;;;;;5049144;27;83697;-64
2023/03/13 07:20:53;;;;;;;0.80;0.80;;;;;;;;;;5063625;27;82526;-64
2023/03/13 07:23:21;;;;;;;1.40;1.10;;;;;;;;;;5062832;27;83992;-64
2023/03/13 07:25:53;;;;;;;1.13;0.70;;;;;;;;;;5063547;27;84777;-64
2023/03/13 07:28:22;;;;;;;0.80;0.80;;;;;;;;;;5064367;27;84534;-64
2023/03/13 07:30:50;;;;;;;1.03;0.77;;;;;;;;;;5063991;27;81791;-64
2023/03/13 07:33:18;;;;;;;4.03;1.10;;;;;;;;;;5064420;27;83792;-64
2023/03/13 07:35:51;;;;;;;3.77;1.27;;;;;;;;;;5063649;27;84543;-64
2023/03/13 07:38:19;;;;;;;4.30;0.70;;;;;;;;;;5063627;27;83715;-64
2023/03/13 07:40:49;;;;;;;0.70;0.60;;;;;;;;;;5063469;27;82270;-64
2023/03/13 07:43:17;;;;;;;1.17;0.80;;;;;;;;;;5064779;27;83459;-64
2023/03/13 07:45:52;;;;;;;2.17;0.83;;;;;;;;;;5063731;27;82968;-64
2023/03/13 07:48:20;;;;;;;1.17;0.80;;;;;;;;;;5064270;27;83716;-64
2023/03/13 07:50:48;;;;;;;1.70;0.80;;;;;;;;;;5062295;27;82957;-64
2023/03/13 07:53:20;;;;;;;1.40;0.90;;;;;;;;;;5063988;27;83549;-64
2023/03/13 07:55:53;;;;;;;4.70;1.00;;;;;;;;;;5067537;27;82378;-64
2023/03/13 07:58:21;;;;;;;0.50;0.47;;;;;;;;;;5068137;27;82779;-61
2023/03/13 08:00:49;;;;;;;1.50;0.67;;;;;;;;;;5067320;27;81852;-64
2023/03/13 08:03:17;;;;;;;0.90;0.73;;;;;;;;;;5067865;27;83768;-63
2023/03/13 08:05:46;;;;;;;1.47;0.80;;;;;;;;;;5067993;27;83984;-63
2023/03/13 08:08:14;;;;;;;1.50;1.40;;;;;;;;;;5067878;27;83742;-64
2023/03/13 08:10:44;;;;;;;0.93;0.80;;;;;;;;;;5066927;27;81973;-62
2023/03/13 08:13:12;;;;;;;1.23;0.90;;;;;;;;;;5067224;27;83657;-62
2023/03/13 08:15:40;;;;;;;0.77;0.70;;;;;;;;;;5065336;27;83856;-63
2023/03/13 08:18:08;;;;;;;1.10;1.00;;;;;;;;;;5065575;27;84545;-63
2023/03/13 08:20:37;;;;;;;1.30;0.57;;;;;;;;;;5066361;27;82005;-61
2023/03/13 08:23:05;;;;;;;0.70;0.70;;;;;;;;;;5065385;27;82924;-63
2023/03/13 08:25:33;;;;;;;3.90;0.70;;;;;;;;;;5066606;27;83819;-63
2023/03/13 08:28:03;;;;;;;0.67;0.60;;;;;;;;;;5066081;27;82671;-62
2023/03/13 08:30:31;;;;;;;1.50;0.63;;;;;;;;;;5066342;27;81979;-62
2023/03/13 08:32:59;;;;;;;0.87;0.87;;;;;;;;;;5067243;27;82582;-62
2023/03/13 08:35:29;;;;;;;0.57;0.57;;;;;;;;;;5067666;27;84145;-62
2023/03/13 08:37:57;;;;;;;2.23;0.97;;;;;;;;;;5067524;27;84293;-64
2023/03/13 08:40:25;;;;;;;1.00;0.70;;;;;;;;;;5067088;27;82948;-62
2023/03/13 08:42:54;;;;;;;0.63;0.43;;;;;;;;;;5067178;27;83596;-62
2023/03/13 08:45:24;;;;;;;0.63;0.63;;;;;;;;;;5067190;27;82930;-62
2023/03/13 08:47:53;;;;;;;0.57;0.57;;;;;;;;;;5067692;27;83639;-61
2023/03/13 08:50:21;;;;;;;1.33;0.40;;;;;;;;;;5067197;27;81992;-62
2023/03/13 08:52:49;;;;;;;1.37;0.57;;;;;;;;;;5067244;27;82669;-62
2023/03/13 08:55:17;;;;;;;1.80;0.70;;;;;;;;;;5064063;27;88774;-62
2023/03/13 08:57:46;;;;;;;8.20;0.60;;;;;;;;;;5064806;27;88913;-61
2023/03/13 09:00:14;;;;;;;0.60;0.60;;;;;;;;;;5064024;27;87074;-62
2023/03/13 09:02:44;;;;;;;1.00;0.60;;;;;;;;;;5044645;27;87085;-62
2023/03/13 09:05:12;;;;;;;0.50;0.50;;;;;;;;;;5056377;27;89963;-62
2023/03/13 09:07:41;;;;;;;1.23;0.40;;;;;;;;;;5063810;27;89917;-62
2023/03/13 09:10:09;;;;;;;2.63;0.50;;;;;;;;;;5063194;27;86816;-62
2023/03/13 09:12:38;;;;;;;1.80;1.00;;;;;;;;;;5064395;27;87072;-62
2023/03/13 09:15:07;;;;;;;1.17;0.80;;;;;;;;;;5064255;27;89055;-62
2023/03/13 09:17:35;;;;;;;3.43;0.80;;;;;;;;;;5064111;27;88818;-62
2023/03/13 09:20:05;;;;;;;1.43;0.47;;;;;;;;;;5063781;27;86996;-62
2023/03/13 09:22:33;;;;;;;0.93;0.77;;;;;;;;;;5064548;27;86307;-61
2023/03/13 09:25:02;;;;;;;0.60;0.60;;;;;;;;;;5064259;27;89338;-62
2023/03/13 09:27:30;;;;;;;0.90;0.60;;;;;;;;;;5064103;27;88680;-62
2023/03/13 09:29:58;;;;;;;1.03;0.80;;;;;;;;;;5063886;27;88573;-62
2023/03/13 09:32:27;;;;;;;0.50;0.50;;;;;;;;;;5064362;27;86881;-62
2023/03/13 09:34:55;;;;;;;1.27;0.40;;;;;;;;;;5063579;27;89104;-62
2023/03/13 09:37:25;;;;;;;0.80;0.70;;;;;;;;;;5063228;27;88948;-62
2023/03/13 09:39:53;;;;;;;0.63;0.50;;;;;;;;;;5062199;27;87127;-62
2023/03/13 09:42:21;;;;;;;0.40;0.37;;;;;;;;;;5063832;27;86978;-62
2023/03/13 09:44:50;;;;;;;0.50;0.50;;;;;;;;;;5063519;27;89128;-62
2023/03/13 09:47:20;;;;;;;0.40;0.40;;;;;;;;;;5063649;27;87854;-62
2023/03/13 09:49:50;;;;;;;2.10;0.47;;;;;;;;;;5063434;27;87106;-61
2023/03/13 09:52:19;;;;;;;0.20;0.20;;;;;;;;;;5063786;27;87067;-62
2023/03/13 09:54:50;;;;;;;0.23;0.23;;;;;;;;;;5063235;27;90124;-62
2023/03/13 09:57:20;;;;;;;0.73;0.60;;;;;;;;;;5063739;27;89218;-62
2023/03/13 09:59:50;;;;;;;1.30;0.40;;;;;;;;;;5064170;27;86973;-62
2023/03/13 10:02:20;;;;;;;0.40;0.37;;;;;;;;;;5063991;27;86887;-63
2023/03/13 10:04:50;;;;;;;1.30;0.57;;;;;;;;;;5062790;27;88651;-62
2023/03/13 10:07:20;;;;;;;2.57;0.70;;;;;;;;;;5062252;27;89133;-62
2023/03/13 10:09:49;;;;;;;0.37;0.30;;;;;;;;;;5063212;27;86905;-62
2023/03/13 10:12:19;;;;;;;0.90;0.60;;;;;;;;;;5064212;27;86398;-62
2023/03/13 10:14:50;;;;;;;2.37;1.03;;;;;;;;;;5063132;27;89038;-62
2023/03/13 10:17:21;;;;;;;0.40;0.40;;;;;;;;;;5063519;27;88263;-62
2023/03/13 10:19:52;;;;;;;2.03;0.80;;;;;;;;;;5062618;27;88279;-62
2023/03/13 10:22:21;;;;;;;0.53;0.53;;;;;;;;;;5062303;27;87412;-62
2023/03/13 10:24:52;;;;;;;0.37;0.37;;;;;;;;;;5063127;27;89129;-62
2023/03/13 10:27:20;;;;;;;2.20;0.30;;;;;;;;;;5062907;27;88816;-62
2023/03/13 10:29:49;;;;;;;0.60;0.53;;;;;;;;;;5062874;27;86913;-62
2023/03/13 10:32:17;;;;;;;0.83;0.50;;;;;;;;;;5063300;27;86948;-62
2023/03/13 10:34:46;;;;;;;0.40;0.40;;;;;;;;;;5062657;27;89110;-62
2023/03/13 10:37:15;;;;;;;1.27;1.13;;;;;;;;;;5063028;27;88921;-62
2023/03/13 10:39:43;;;;;;;1.03;0.60;;;;;;;;;;5063264;27;86776;-62
2023/03/13 10:42:19;;;;;;;0.40;0.40;;;;;;;;;;5063107;27;86992;-62
2023/03/13 10:44:47;;;;;;;0.50;0.50;;;;;;;;;;5062378;27;89297;-62
2023/03/13 10:47:16;;;;;;;2.10;0.93;;;;;;;;;;5062548;27;89812;-62
2023/03/13 10:49:48;;;;;;;0.50;0.50;;;25.50;43.40;;;;;;5061967;27;87038;-62
2023/03/13 10:52:32;;;;;;;1.00;0.70;;;25.50;44.20;;;;;;5062495;27;87014;-62
2023/03/13 10:55:01;;;;;;;1.57;0.60;;;25.30;44.30;;;;;;5062385;27;87920;-62
2023/03/13 10:57:30;;;;;;;0.37;0.37;;;25.30;44.30;;;;;;5062690;27;89007;-62
2023/03/13 10:59:58;;;;;;;0.73;0.73;;;25.20;44.40;;;;;;5062521;27;87058;-62
2023/03/13 11:02:31;;;;;;;1.07;0.70;;;25.10;44.60;;;;;;5063029;27;86372;-62
2023/03/13 11:05:03;;;;;;;0.70;0.43;;;25.10;47.70;;;;;;5062626;27;89040;-62
2023/03/13 11:07:34;;;;;;;2.57;0.60;;;25.10;44.50;;;;;;5062540;27;88730;-62
2023/03/13 11:10:04;;;;;;;3.37;0.70;;;25.00;44.90;;;;;;5061970;27;87695;-62
2023/03/13 11:12:35;;;;;;;0.30;0.30;;;;;;;;;;5062911;27;86992;-61
2023/03/13 11:15:03;;;;;;;1.60;0.60;;;24.90;43.90;;;;;;5062858;27;89096;-62
2023/03/13 11:17:37;;;;;;;1.60;0.70;;;24.90;44.50;;;;;;5062924;27;88851;-61
2023/03/13 11:20:23;;;;;;;1.33;0.60;;;24.90;44.60;;;;;;5062432;27;87162;-61
2023/03/13 11:23:00;;;;;;;0.73;0.70;;;24.80;44.50;;;;;;5061908;27;87069;-62
2023/03/13 11:25:32;;;;;;;0.60;0.40;;;24.80;44.60;;;;;;5062369;27;92028;-61
2023/03/13 11:28:14;;;;;;;1.23;0.40;;;24.80;44.60;;;;;;5061672;27;89079;-61
2023/03/13 11:30:47;;;;;;;0.47;0.40;;;24.70;44.50;;;;;;5062419;27;86913;-62
2023/03/13 11:33:22;;;;;;;3.00;0.70;;;24.70;44.50;;;;;;5061988;27;88004;-62
2023/03/13 11:35:52;;;;;;;1.10;0.57;;;24.70;44.50;;;;;;5060918;27;90390;-63
2023/03/13 11:38:23;;;;;;;1.13;0.77;;;24.70;44.50;;;;;;5061825;27;90254;-62
2023/03/13 11:40:55;;;;;;;1.00;0.63;;;24.70;44.50;;;;;;5062108;27;86972;-64
2023/03/13 11:43:32;;;;;;;1.07;0.73;;;24.60;44.40;;;;;;5061938;27;87070;-62
2023/03/13 11:46:08;;;;;;;0.53;0.53;;;24.60;45.10;;;;;;5061971;27;88962;-62
2023/03/13 11:49:00;;;;;;;0.63;0.43;;;24.60;44.50;;;;;;5062210;27;88951;-61
2023/03/13 11:51:30;;;;;;;1.63;0.57;;;;;;;;;;5062083;27;86912;-62
2023/03/13 11:54:06;;;;;;;1.03;0.93;;;24.60;43.90;;;;;;5062702;27;86288;-62
2023/03/13 11:56:36;;;;;;;1.43;0.60;;;24.60;44.60;;;;;;5062165;27;89648;-62
2023/03/13 11:59:21;;;;;;;2.37;0.73;;;24.60;44.50;;;;;;5061622;27;88844;-62
2023/03/13 12:01:51;;;;;;;0.67;0.50;;;24.60;44.50;;;;;;5061731;27;88064;-61
2023/03/13 12:04:22;;;;;;;0.60;0.40;;;24.60;44.40;;;;;;5061383;27;87038;-62
2023/03/13 12:06:51;;;;;;;0.60;0.60;;;24.60;44.40;;;;;;5060596;27;89098;-62
2023/03/13 12:09:23;;;;;;;3.13;0.87;;;24.50;44.40;;;;;;5061142;27;88971;-62
2023/03/13 12:11:58;;;;;;;1.90;0.63;;;24.50;44.40;;;;;;5061772;27;86955;-62
2023/03/13 12:14:28;;;;;;;0.43;0.40;;;24.50;44.60;;;;;;5061930;27;86919;-62
2023/03/13 12:16:57;;;;;;;0.87;0.70;;;24.50;44.50;;;;;;5061704;27;89208;-62
2023/03/13 12:19:28;;;;;;;3.70;0.97;;;24.50;44.40;;;;;;5061456;27;87655;-62
2023/03/13 12:21:57;;;;;;;0.50;0.50;;;24.50;44.40;;;;;;5061910;27;86874;-62
2023/03/13 12:24:28;;;;;;;0.53;0.50;;;24.40;44.30;;;;;;5061488;27;87030;-62
2023/03/13 12:26:57;;;;;;;1.00;0.80;;;24.40;44.30;;;;;;5061046;27;93093;-62
2023/03/13 12:29:38;;;;;;;1.87;0.47;;;24.40;44.30;;;;;;5061764;27;89897;-62
2023/03/13 12:32:09;;;;;;;0.60;0.60;;;24.40;44.30;;;;;;5061840;27;86990;-62
2023/03/13 12:34:42;;;;;;;0.50;0.50;;;24.40;44.30;;;;;;5061412;27;86904;-62
2023/03/13 12:37:12;;;;;;;0.80;0.80;;;24.40;44.30;;;;;;5061053;27;89700;-62
2023/03/13 12:39:42;;;;;;;1.63;1.00;;;24.40;44.40;;;;;;5061400;27;88644;-62
2023/03/13 12:42:17;;;;;;;1.90;0.70;;;24.30;44.30;;;;;;5065173;27;87145;-62
2023/03/13 12:44:46;;;;;;;0.60;0.60;;;24.30;44.80;;;;;;5065026;27;86278;-62
2023/03/13 12:47:17;;;;;;;0.50;0.50;;;24.30;44.30;;;;;;5064352;27;87946;-62
2023/03/13 12:50:15;;;;;;;0.83;0.70;;;24.30;44.30;;;;;;5064864;27;88449;-62
2023/03/13 12:53:15;;;;;;;1.03;0.70;;;24.30;44.40;;;;;;5057975;27;87979;-62
2023/03/13 12:56:07;;;;;;;1.03;0.80;;;24.30;44.30;;;;;;5064670;27;86928;-62
2023/03/13 12:58:46;;;;;;;0.87;0.47;;;24.30;44.30;;;;;;5064819;27;89077;-62
2023/03/13 13:01:17;;;;;;;0.70;0.70;;;24.30;44.30;;;;;;5064686;27;89025;-62
2023/03/13 13:03:51;;;;;;;1.47;0.60;;;24.30;44.40;;;;;;5064740;27;86799;-62
2023/03/13 13:06:19;;;;;;;0.50;0.40;;;24.20;44.20;;;;;;5064171;27;86926;-62
2023/03/13 13:08:48;;;;;;;1.03;0.70;;;24.30;44.30;;;;;;5064288;27;89033;-62
2023/03/13 13:11:40;;;;;;;0.50;0.50;;;24.30;44.30;;;;;;5064364;27;87723;-62
2023/03/13 13:14:53;;;;;;;0.77;0.77;;;24.20;44.20;;;;;;5064431;27;87037;-62
2023/03/13 13:17:34;;;;;;;0.60;0.40;;;24.20;44.20;;;;;;5064589;27;86891;-62
2023/03/13 13:20:34;;;;;;;1.87;0.80;;;24.20;44.20;;;;;;5063122;27;90041;-62
2023/03/13 13:23:32;;;;;;;2.00;0.67;;;24.20;44.90;;;;;;5063699;27;90890;-62
2023/03/13 13:26:46;;;;;;;0.73;0.67;;;24.20;44.20;;;;;;5064483;27;86934;-62
2023/03/13 13:29:54;;;;;;;0.60;0.57;;;24.20;44.20;;;;;;5063358;27;87019;-62
2023/03/13 13:32:45;;;;;;;2.70;0.53;;;24.20;44.20;;;;;;5064103;27;88648;-62
2023/03/13 13:35:21;;;;;;;1.43;0.70;;;24.10;44.20;;;;;;5063412;27;88864;-62
2023/03/13 13:37:49;;;;;;;0.93;0.47;;;24.10;44.80;;;;;;5063288;27;86892;-62
2023/03/13 13:40:19;;;;;;;0.70;0.70;;;24.20;44.20;;;;;;5063762;27;87176;-62
2023/03/13 13:42:48;;;;;;;0.53;0.53;;;24.10;44.20;;;;;;5063048;27;89049;-61
2023/03/13 13:45:25;;;;;;;1.20;0.60;;;24.10;44.20;;;;;;5063982;27;88862;-61
2023/03/13 13:48:16;;;;;;;1.83;0.80;;;24.10;44.20;;;;;;5063461;27;87776;-61
2023/03/13 13:51:33;;;;;;;0.63;0.60;;;24.10;44.20;;;;;;5062185;27;87440;-61
2023/03/13 13:54:01;;;;;;;0.97;0.80;;;24.10;44.20;;;;;;5058572;27;89099;-61
2023/03/13 13:56:35;;;;;;;0.80;0.60;;;24.10;44.20;;;;;;5061226;27;88942;-61
2023/03/13 13:59:05;;;;;;;1.40;0.80;;;24.10;44.20;;;;;;5061822;27;86956;-61
2023/03/13 14:01:33;;;;;;;1.57;0.53;;;24.10;44.20;;;;;;5059317;27;87023;-61
2023/03/13 14:04:11;;;;;;;3.23;0.80;;;24.10;44.20;;;;;;5061177;27;88094;-61
2023/03/13 14:06:39;;;;;;;1.10;0.80;;;24.10;44.20;;;;;;5061669;27;89536;-61
2023/03/13 14:09:14;;;;;;;1.37;0.73;;;24.10;44.20;;;;;;5061957;27;88229;-61
2023/03/13 14:11:42;;;;;;;2.40;0.87;;;24.10;44.20;;;;;;5059399;27;88079;-61
2023/03/13 14:14:13;;;;;;;2.00;0.60;;;24.10;44.10;;;;;;5060955;27;90361;-61
2023/03/13 14:16:45;;;;;;;3.50;1.23;;;24.10;44.10;;;;;;5061538;27;90662;-60
2023/03/13 14:19:25;;;;;;;1.83;0.90;;;24.10;44.10;;;;;;5060763;27;87013;-61
2023/03/13 14:21:58;;;;;;;0.73;0.63;;;24.10;44.10;;;;;;5060629;27;86895;-60